Glen Hope, PA

10:30 AM EDT en Octubre 25, 2014 (GMT -0400)
Indiana County-Stewart | Change Station
CLOSE
Current Station
Aeropuerto
Location: Indiana,
Altura: 1407 ft
Estaciones meteorológicas cercanas

Alt 1407 ft 40.63 °N, 79.11 °W | Updated 15 minutes ago

Parcialmente nublado
Parcialmente nublado
52 ° F
Sensación térmica 52 ° F
N
10
Viento Variable Viento desde Oeste

Hoy
Alta -- | Baja -- ° F
--% Posibilidad de precipitaciones
Ayer
Alta -- | Baja -- ° F
Precip. -- pul
7:36 AM 6:19 PM
Creciente, 3% visible
Presión 29.96 pul
Visibilidad 10.0 Millas
Nubes Baja 2000 ft
Nubes dispersas 3300 ft
Muy nublado 3900 ft
Punto de rocío 43 ° F
Humedad 71%
Precipitaciones 0.00 pul
Espesor de la nieve No disponible.
UV 1 de una escala de 12
Polen 1.20 de una escala de 12
Calidad del aire No disponible.
Flu Activity Sporadic
METAR KIDI 251415Z AUTO 26009KT 10SM FEW020 SCT033 BKN039 11/06 A2996 RMK A01

More Conditions Fewer Conditions

Presión 29.96 pul
Visibilidad 10.0 Millas
Nubes Baja 2000 ft
Nubes dispersas 3300 ft
Muy nublado 3900 ft
Punto de rocío 43 ° F
Humedad 71%
Precipitaciones 0.00 pul
Espesor de la nieve No disponible.
UV 1 de una escala de 12
Polen 1.20 de una escala de 12
Calidad del aire No disponible.
Flu Activity Sporadic
METAR KIDI 251415Z AUTO 26009KT 10SM FEW020 SCT033 BKN039 11/06 A2996 RMK A01

More Conditions Fewer Conditions

10-Day Weather Forecast

Almanac

Astronomía

Oct. 25, 2014 Salida Puesta
Hora real 7:36 AM EDT 6:19 PM EDT
Crepúsculo civil 7:08 AM EDT 6:47 PM EDT
Crepúsculo náutico 6:36 AM EDT 7:19 PM EDT
Crepúsculo astronómico 6:04 AM EDT 7:50 PM EDT
Luna 9:13 AM EDT 7:40 PM EDT
Horas de luz 11h 38m
Horas de luz
10h 42m
Tomorrow will be 2m 30s shorter.
Creciente, 3% of the Moon is Illuminated
Hoy
Creciente
Oct 30
Cuarto creciente
Nov 6
Luna llena
Nov 14
Cuarto menguante
Nov 22
Nueva

Extremos de hoy

Máximos del estado Bajos del estado

Community

WunderPhotos

Upload Photos

1,764,852 ¡fotos cargadas!

Nearby

Grosos de nieve

Estación Profundido Altura
No tenemos constancia de nieve nueva.

Actividad de terremotos

Ciudad Distance Mag. Tiempo y dato
No hay informes recientes de la actividad sísmica.
Magnitud mínima muestra es 2,5.

Temperaturas de aguas costeras

Lugar Temperatura
Sin partes meteorológicos de las estaciones

Estaciones meteorológicas cercanas